sensor_id;sensor_type;location;lat;lon;timestamp;pressure;altitude;pressure_sealevel;temperature;humidity
6030;BME280;3043;42.682;23.376;2022-09-12T00:00:48;94677.59;;;16.01;100.00
6030;BME280;3043;42.682;23.376;2022-09-12T00:03:14;94680.13;;;16.03;100.00
6030;BME280;3043;42.682;23.376;2022-09-12T00:05:48;94668.31;;;15.96;100.00
6030;BME280;3043;42.682;23.376;2022-09-12T00:08:14;94679.78;;;15.93;100.00
6030;BME280;3043;42.682;23.376;2022-09-12T00:10:41;94681.28;;;15.97;100.00
6030;BME280;3043;42.682;23.376;2022-09-12T00:13:07;94690.50;;;15.87;100.00
6030;BME280;3043;42.682;23.376;2022-09-12T00:15:43;94678.38;;;15.86;100.00
6030;BME280;3043;42.682;23.376;2022-09-12T00:18:13;94687.75;;;15.73;100.00
6030;BME280;3043;42.682;23.376;2022-09-12T00:20:43;94684.34;;;15.71;100.00
6030;BME280;3043;42.682;23.376;2022-09-12T00:23:10;94683.88;;;15.63;100.00
6030;BME280;3043;42.682;23.376;2022-09-12T00:25:43;94693.41;;;15.64;100.00
6030;BME280;3043;42.682;23.376;2022-09-12T00:28:09;94693.31;;;15.83;100.00
6030;BME280;3043;42.682;23.376;2022-09-12T00:30:40;94680.50;;;15.61;100.00
6030;BME280;3043;42.682;23.376;2022-09-12T00:33:06;94687.44;;;15.79;100.00
6030;BME280;3043;42.682;23.376;2022-09-12T00:35:31;94691.09;;;15.75;100.00
6030;BME280;3043;42.682;23.376;2022-09-12T00:37:56;94689.41;;;15.74;100.00
6030;BME280;3043;42.682;23.376;2022-09-12T00:40:22;94680.97;;;15.69;100.00
6030;BME280;3043;42.682;23.376;2022-09-12T00:42:47;94692.03;;;15.91;100.00
6030;BME280;3043;42.682;23.376;2022-09-12T00:45:28;94690.94;;;15.61;100.00
6030;BME280;3043;42.682;23.376;2022-09-12T00:47:57;94692.13;;;15.54;100.00
6030;BME280;3043;42.682;23.376;2022-09-12T00:50:25;94693.72;;;15.58;100.00
6030;BME280;3043;42.682;23.376;2022-09-12T00:52:55;94690.16;;;15.59;100.00
6030;BME280;3043;42.682;23.376;2022-09-12T00:55:30;94693.84;;;15.55;100.00
6030;BME280;3043;42.682;23.376;2022-09-12T01:00:28;94697.66;;;15.48;100.00
6030;BME280;3043;42.682;23.376;2022-09-12T01:03:00;94683.88;;;15.46;100.00
6030;BME280;3043;42.682;23.376;2022-09-12T01:05:27;94684.38;;;15.34;100.00
6030;BME280;3043;42.682;23.376;2022-09-12T01:07:55;94676.50;;;15.36;100.00
6030;BME280;3043;42.682;23.376;2022-09-12T01:10:21;94676.56;;;15.34;100.00
6030;BME280;3043;42.682;23.376;2022-09-12T01:12:48;94674.25;;;15.28;100.00
6030;BME280;3043;42.682;23.376;2022-09-12T01:15:14;94675.31;;;15.24;100.00
6030;BME280;3043;42.682;23.376;2022-09-12T01:20:44;94676.63;;;15.51;100.00
6030;BME280;3043;42.682;23.376;2022-09-12T01:37:21;94680.97;;;15.15;100.00
6030;BME280;3043;42.682;23.376;2022-09-12T01:40:01;94680.47;;;15.26;100.00
6030;BME280;3043;42.682;23.376;2022-09-12T01:42:38;94675.41;;;15.04;100.00
6030;BME280;3043;42.682;23.376;2022-09-12T01:45:23;94678.50;;;15.12;100.00
6030;BME280;3043;42.682;23.376;2022-09-12T01:47:59;94675.13;;;15.10;100.00
6030;BME280;3043;42.682;23.376;2022-09-12T01:50:31;94672.47;;;14.93;100.00
6030;BME280;3043;42.682;23.376;2022-09-12T01:53:08;94668.66;;;15.00;100.00
6030;BME280;3043;42.682;23.376;2022-09-12T01:55:45;94664.69;;;15.10;100.00
6030;BME280;3043;42.682;23.376;2022-09-12T01:58:21;94665.13;;;15.01;100.00
6030;BME280;3043;42.682;23.376;2022-09-12T02:01:08;94657.25;;;14.84;100.00
6030;BME280;3043;42.682;23.376;2022-09-12T02:03:46;94658.25;;;14.82;100.00
6030;BME280;3043;42.682;23.376;2022-09-12T02:06:22;94646.22;;;14.79;100.00
6030;BME280;3043;42.682;23.376;2022-09-12T02:08:52;94656.13;;;14.90;100.00
6030;BME280;3043;42.682;23.376;2022-09-12T02:11:19;94663.88;;;14.73;100.00
6030;BME280;3043;42.682;23.376;2022-09-12T02:13:53;94667.66;;;14.84;100.00
6030;BME280;3043;42.682;23.376;2022-09-12T02:16:34;94670.69;;;14.75;100.00
6030;BME280;3043;42.682;23.376;2022-09-12T02:19:15;94670.16;;;14.69;100.00
6030;BME280;3043;42.682;23.376;2022-09-12T02:21:47;94672.53;;;14.73;100.00
6030;BME280;3043;42.682;23.376;2022-09-12T02:24:16;94673.50;;;14.71;100.00
6030;BME280;3043;42.682;23.376;2022-09-12T02:27:00;94667.53;;;14.87;100.00
6030;BME280;3043;42.682;23.376;2022-09-12T02:29:28;94658.09;;;14.66;100.00
6030;BME280;3043;42.682;23.376;2022-09-12T02:31:58;94657.66;;;14.75;100.00
6030;BME280;3043;42.682;23.376;2022-09-12T02:34:46;94668.31;;;14.89;100.00
6030;BME280;3043;42.682;23.376;2022-09-12T02:37:41;94671.06;;;14.86;100.00
6030;BME280;3043;42.682;23.376;2022-09-12T02:40:10;94677.34;;;14.82;100.00
6030;BME280;3043;42.682;23.376;2022-09-12T02:42:36;94681.63;;;14.83;100.00
6030;BME280;3043;42.682;23.376;2022-09-12T02:45:02;94683.84;;;14.72;100.00
6030;BME280;3043;42.682;23.376;2022-09-12T02:50:12;94673.56;;;14.69;100.00
6030;BME280;3043;42.682;23.376;2022-09-12T02:52:37;94677.38;;;14.62;100.00
6030;BME280;3043;42.682;23.376;2022-09-12T02:55:05;94691.19;;;14.64;100.00
6030;BME280;3043;42.682;23.376;2022-09-12T02:57:30;94688.66;;;14.63;100.00
6030;BME280;3043;42.682;23.376;2022-09-12T02:59:57;94699.22;;;14.78;100.00
6030;BME280;3043;42.682;23.376;2022-09-12T03:05:43;94697.16;;;14.66;100.00
6030;BME280;3043;42.682;23.376;2022-09-12T03:10:53;94691.69;;;14.54;100.00
6030;BME280;3043;42.682;23.376;2022-09-12T03:16:29;94693.00;;;14.62;100.00
6030;BME280;3043;42.682;23.376;2022-09-12T03:27:35;94694.50;;;14.49;100.00
6030;BME280;3043;42.682;23.376;2022-09-12T03:30:04;94695.06;;;14.36;100.00
6030;BME280;3043;42.682;23.376;2022-09-12T03:32:46;94684.72;;;14.34;100.00
6030;BME280;3043;42.682;23.376;2022-09-12T03:35:13;94692.03;;;14.46;100.00
6030;BME280;3043;42.682;23.376;2022-09-12T03:37:39;94691.88;;;14.49;100.00
6030;BME280;3043;42.682;23.376;2022-09-12T03:40:06;94689.34;;;14.48;100.00
6030;BME280;3043;42.682;23.376;2022-09-12T03:42:31;94688.50;;;14.47;100.00
6030;BME280;3043;42.682;23.376;2022-09-12T03:44:57;94683.97;;;14.32;100.00
6030;BME280;3043;42.682;23.376;2022-09-12T03:47:22;94684.22;;;14.26;100.00
6030;BME280;3043;42.682;23.376;2022-09-12T03:49:48;94698.72;;;14.32;100.00
6030;BME280;3043;42.682;23.376;2022-09-12T03:52:13;94685.72;;;14.32;100.00
6030;BME280;3043;42.682;23.376;2022-09-12T03:54:39;94679.50;;;14.34;100.00
6030;BME280;3043;42.682;23.376;2022-09-12T03:57:04;94685.94;;;14.46;100.00
6030;BME280;3043;42.682;23.376;2022-09-12T03:59:30;94686.94;;;14.43;100.00
6030;BME280;3043;42.682;23.376;2022-09-12T04:01:56;94689.66;;;14.20;100.00
6030;BME280;3043;42.682;23.376;2022-09-12T04:04:21;94691.06;;;14.28;100.00
6030;BME280;3043;42.682;23.376;2022-09-12T04:06:47;94694.25;;;14.35;100.00
6030;BME280;3043;42.682;23.376;2022-09-12T04:09:12;94693.44;;;14.53;100.00
6030;BME280;3043;42.682;23.376;2022-09-12T04:11:38;94691.13;;;14.27;100.00
6030;BME280;3043;42.682;23.376;2022-09-12T04:14:04;94691.91;;;14.29;100.00
6030;BME280;3043;42.682;23.376;2022-09-12T04:16:29;94688.50;;;14.47;100.00
6030;BME280;3043;42.682;23.376;2022-09-12T04:18:54;94690.97;;;14.30;100.00
6030;BME280;3043;42.682;23.376;2022-09-12T04:21:20;94689.91;;;14.54;100.00
6030;BME280;3043;42.682;23.376;2022-09-12T04:23:46;94708.97;;;14.93;100.00
6030;BME280;3043;42.682;23.376;2022-09-12T04:26:12;94713.91;;;14.99;100.00
6030;BME280;3043;42.682;23.376;2022-09-12T04:28:38;94702.34;;;15.05;100.00
6030;BME280;3043;42.682;23.376;2022-09-12T04:31:13;94710.75;;;15.28;100.00
6030;BME280;3043;42.682;23.376;2022-09-12T04:33:41;94718.75;;;15.79;100.00
6030;BME280;3043;42.682;23.376;2022-09-12T04:36:10;94718.75;;;16.31;100.00
6030;BME280;3043;42.682;23.376;2022-09-12T04:38:36;94720.06;;;16.56;100.00
6030;BME280;3043;42.682;23.376;2022-09-12T04:41:22;94721.75;;;16.90;100.00
6030;BME280;3043;42.682;23.376;2022-09-12T04:43:53;94736.34;;;17.42;100.00
6030;BME280;3043;42.682;23.376;2022-09-12T04:46:19;94744.09;;;17.90;100.00
6030;BME280;3043;42.682;23.376;2022-09-12T04:48:45;94747.72;;;18.33;100.00
6030;BME280;3043;42.682;23.376;2022-09-12T04:54:16;94761.66;;;19.34;100.00
6030;BME280;3043;42.682;23.376;2022-09-12T04:56:44;94754.72;;;19.33;100.00
6030;BME280;3043;42.682;23.376;2022-09-12T04:59:12;94765.53;;;19.84;100.00
6030;BME280;3043;42.682;23.376;2022-09-12T05:01:37;94766.47;;;20.09;100.00
6030;BME280;3043;42.682;23.376;2022-09-12T05:04:03;94770.09;;;20.21;100.00
6030;BME280;3043;42.682;23.376;2022-09-12T05:06:32;94777.75;;;20.38;100.00
6030;BME280;3043;42.682;23.376;2022-09-12T05:08:59;94779.78;;;21.11;100.00
6030;BME280;3043;42.682;23.376;2022-09-12T05:11:31;94770.22;;;21.10;100.00
6030;BME280;3043;42.682;23.376;2022-09-12T05:13:56;94774.09;;;21.17;100.00
6030;BME280;3043;42.682;23.376;2022-09-12T05:16:23;94779.72;;;20.86;100.00
6030;BME280;3043;42.682;23.376;2022-09-12T05:18:49;94780.16;;;20.92;100.00
6030;BME280;3043;42.682;23.376;2022-09-12T05:21:18;94780.25;;;21.79;100.00
6030;BME280;3043;42.682;23.376;2022-09-12T05:23:45;94782.72;;;22.29;100.00
6030;BME280;3043;42.682;23.376;2022-09-12T05:26:14;94770.97;;;22.80;100.00
6030;BME280;3043;42.682;23.376;2022-09-12T05:28:40;94778.28;;;22.76;100.00
6030;BME280;3043;42.682;23.376;2022-09-12T05:31:11;94776.28;;;23.26;100.00
6030;BME280;3043;42.682;23.376;2022-09-12T05:33:38;94773.63;;;23.92;100.00
6030;BME280;3043;42.682;23.376;2022-09-12T05:36:06;94773.88;;;24.00;100.00
6030;BME280;3043;42.682;23.376;2022-09-12T05:38:35;94781.94;;;23.65;100.00
6030;BME280;3043;42.682;23.376;2022-09-12T05:41:12;94785.31;;;22.65;100.00
6030;BME280;3043;42.682;23.376;2022-09-12T05:43:39;94780.59;;;21.74;100.00
6030;BME280;3043;42.682;23.376;2022-09-12T05:46:16;94776.78;;;20.12;100.00
6030;BME280;3043;42.682;23.376;2022-09-12T05:48:44;94770.47;;;20.93;100.00
6030;BME280;3043;42.682;23.376;2022-09-12T05:51:16;94772.50;;;21.52;100.00
6030;BME280;3043;42.682;23.376;2022-09-12T05:53:47;94778.13;;;21.84;100.00
6030;BME280;3043;42.682;23.376;2022-09-12T05:56:18;94779.78;;;22.44;100.00
6030;BME280;3043;42.682;23.376;2022-09-12T05:58:46;94771.19;;;23.23;100.00
6030;BME280;3043;42.682;23.376;2022-09-12T06:01:16;94761.88;;;23.74;100.00
6030;BME280;3043;42.682;23.376;2022-09-12T06:06:09;94763.41;;;23.87;98.64
6030;BME280;3043;42.682;23.376;2022-09-12T06:08:39;94761.81;;;24.18;95.53
6030;BME280;3043;42.682;23.376;2022-09-12T06:11:06;94759.41;;;24.26;99.12
6030;BME280;3043;42.682;23.376;2022-09-12T06:13:33;94736.38;;;23.84;98.81
6030;BME280;3043;42.682;23.376;2022-09-12T06:16:03;94757.31;;;24.72;94.13
6030;BME280;3043;42.682;23.376;2022-09-12T06:18:30;94752.69;;;25.26;86.32
6030;BME280;3043;42.682;23.376;2022-09-12T06:20:55;94761.59;;;25.25;88.10
6030;BME280;3043;42.682;23.376;2022-09-12T06:23:20;94760.69;;;25.15;88.10
6030;BME280;3043;42.682;23.376;2022-09-12T06:25:47;94762.53;;;26.45;78.52
6030;BME280;3043;42.682;23.376;2022-09-12T06:28:14;94763.31;;;25.86;81.02
6030;BME280;3043;42.682;23.376;2022-09-12T06:30:40;94768.16;;;26.11;78.60
6030;BME280;3043;42.682;23.376;2022-09-12T06:33:06;94781.69;;;27.15;70.55
6030;BME280;3043;42.682;23.376;2022-09-12T06:35:35;94784.25;;;25.89;78.88
6030;BME280;3043;42.682;23.376;2022-09-12T06:38:00;94782.94;;;25.74;82.58
6030;BME280;3043;42.682;23.376;2022-09-12T06:40:26;94787.28;;;26.05;80.56
6030;BME280;3043;42.682;23.376;2022-09-12T06:42:52;94782.84;;;25.55;80.56
6030;BME280;3043;42.682;23.376;2022-09-12T06:45:17;94780.84;;;25.27;85.47
6030;BME280;3043;42.682;23.376;2022-09-12T06:47:44;94791.94;;;26.23;78.36
6030;BME280;3043;42.682;23.376;2022-09-12T06:50:09;94789.25;;;27.10;71.90
6030;BME280;3043;42.682;23.376;2022-09-12T06:52:35;94791.50;;;27.05;72.50
6030;BME280;3043;42.682;23.376;2022-09-12T06:55:00;94797.09;;;27.11;71.47
6030;BME280;3043;42.682;23.376;2022-09-12T06:57:26;94801.72;;;27.84;64.20
6030;BME280;3043;42.682;23.376;2022-09-12T06:59:54;94792.50;;;28.42;60.73
6030;BME280;3043;42.682;23.376;2022-09-12T07:02:20;94796.44;;;27.65;64.86
6030;BME280;3043;42.682;23.376;2022-09-12T07:04:46;94803.97;;;26.27;73.42
6030;BME280;3043;42.682;23.376;2022-09-12T07:07:11;94797.22;;;27.10;70.16
6030;BME280;3043;42.682;23.376;2022-09-12T07:09:37;94805.19;;;27.10;68.38
6030;BME280;3043;42.682;23.376;2022-09-12T07:12:02;94810.09;;;25.05;84.50
6030;BME280;3043;42.682;23.376;2022-09-12T07:14:29;94805.59;;;24.96;88.01
6030;BME280;3043;42.682;23.376;2022-09-12T07:16:54;94806.94;;;24.48;94.55
6030;BME280;3043;42.682;23.376;2022-09-12T07:19:20;94810.41;;;23.62;99.63
6030;BME280;3043;42.682;23.376;2022-09-12T07:21:45;94805.06;;;24.28;97.50
6030;BME280;3043;42.682;23.376;2022-09-12T07:24:11;94806.09;;;25.31;86.93
6030;BME280;3043;42.682;23.376;2022-09-12T07:26:37;94814.69;;;25.35;83.47
6030;BME280;3043;42.682;23.376;2022-09-12T07:29:04;94814.00;;;25.01;85.93
6030;BME280;3043;42.682;23.376;2022-09-12T07:31:29;94790.03;;;22.83;100.00
6030;BME280;3043;42.682;23.376;2022-09-12T07:33:55;94791.75;;;22.85;100.00
6030;BME280;3043;42.682;23.376;2022-09-12T07:36:23;94796.97;;;23.76;100.00
6030;BME280;3043;42.682;23.376;2022-09-12T07:38:54;94797.38;;;24.36;94.35
6030;BME280;3043;42.682;23.376;2022-09-12T07:41:22;94796.75;;;25.27;86.21
6030;BME280;3043;42.682;23.376;2022-09-12T07:43:53;94797.97;;;26.34;74.12
6030;BME280;3043;42.682;23.376;2022-09-12T07:46:19;94796.41;;;26.22;70.79
6030;BME280;3043;42.682;23.376;2022-09-12T07:48:51;94796.88;;;25.46;74.59
6030;BME280;3043;42.682;23.376;2022-09-12T07:51:17;94802.16;;;26.37;68.43
6030;BME280;3043;42.682;23.376;2022-09-12T07:53:43;94795.31;;;27.77;60.18
6030;BME280;3043;42.682;23.376;2022-09-12T07:56:09;94793.44;;;27.03;55.82
6030;BME280;3043;42.682;23.376;2022-09-12T07:58:36;94801.16;;;27.90;55.32
6030;BME280;3043;42.682;23.376;2022-09-12T08:01:03;94800.50;;;28.42;51.03
6030;BME280;3043;42.682;23.376;2022-09-12T08:03:28;94793.00;;;28.55;50.43
6030;BME280;3043;42.682;23.376;2022-09-12T08:05:54;94794.06;;;27.62;51.87
6030;BME280;3043;42.682;23.376;2022-09-12T08:08:19;94808.97;;;28.01;52.27
6030;BME280;3043;42.682;23.376;2022-09-12T08:10:44;94801.41;;;27.12;54.17
6030;BME280;3043;42.682;23.376;2022-09-12T08:13:10;94803.25;;;26.93;58.44
6030;BME280;3043;42.682;23.376;2022-09-12T08:15:35;94797.78;;;27.04;57.72
6030;BME280;3043;42.682;23.376;2022-09-12T08:18:01;94803.94;;;26.76;58.27
6030;BME280;3043;42.682;23.376;2022-09-12T08:20:26;94802.88;;;26.39;61.25
6030;BME280;3043;42.682;23.376;2022-09-12T08:22:52;94814.97;;;26.81;60.37
6030;BME280;3043;42.682;23.376;2022-09-12T08:25:18;94797.28;;;28.39;53.45
6030;BME280;3043;42.682;23.376;2022-09-12T08:27:43;94803.06;;;28.61;51.25
6030;BME280;3043;42.682;23.376;2022-09-12T08:30:10;94805.91;;;27.96;51.06
6030;BME280;3043;42.682;23.376;2022-09-12T08:32:36;94801.47;;;27.68;52.11
6030;BME280;3043;42.682;23.376;2022-09-12T08:35:01;94795.59;;;27.74;53.82
6030;BME280;3043;42.682;23.376;2022-09-12T08:37:30;94793.03;;;26.79;57.06
6030;BME280;3043;42.682;23.376;2022-09-12T08:39:55;94795.63;;;27.55;56.66
6030;BME280;3043;42.682;23.376;2022-09-12T08:43:00;94781.88;;;27.69;54.02
6030;BME280;3043;42.682;23.376;2022-09-12T08:45:42;94797.88;;;26.55;60.79
6030;BME280;3043;42.682;23.376;2022-09-12T08:48:12;94791.22;;;25.81;61.74
6030;BME280;3043;42.682;23.376;2022-09-12T08:50:39;94796.59;;;25.40;66.75
6030;BME280;3043;42.682;23.376;2022-09-12T08:53:15;94791.72;;;24.29;76.17
6030;BME280;3043;42.682;23.376;2022-09-12T08:55:51;94788.78;;;23.79;84.47
6030;BME280;3043;42.682;23.376;2022-09-12T08:58:20;94780.59;;;23.60;90.08
6030;BME280;3043;42.682;23.376;2022-09-12T09:12:11;94776.69;;;26.64;61.60
6030;BME280;3043;42.682;23.376;2022-09-12T09:14:59;94776.88;;;26.33;59.72
6030;BME280;3043;42.682;23.376;2022-09-12T09:17:39;94772.06;;;26.07;59.31
6030;BME280;3043;42.682;23.376;2022-09-12T09:20:18;94760.16;;;25.62;61.71
6030;BME280;3043;42.682;23.376;2022-09-12T09:23:01;94772.53;;;25.82;61.29
6030;BME280;3043;42.682;23.376;2022-09-12T09:25:57;94772.31;;;26.54;57.16
6030;BME280;3043;42.682;23.376;2022-09-12T09:31:13;94767.50;;;25.89;62.98
6030;BME280;3043;42.682;23.376;2022-09-12T09:33:38;94766.94;;;25.85;61.96
6030;BME280;3043;42.682;23.376;2022-09-12T09:36:33;94762.09;;;26.40;58.67
6030;BME280;3043;42.682;23.376;2022-09-12T09:42:06;94753.47;;;26.76;56.60
6030;BME280;3043;42.682;23.376;2022-09-12T09:44:34;94746.44;;;25.57;58.67
6030;BME280;3043;42.682;23.376;2022-09-12T09:47:00;94734.84;;;24.87;64.12
6030;BME280;3043;42.682;23.376;2022-09-12T09:49:30;94744.69;;;25.37;65.93
6030;BME280;3043;42.682;23.376;2022-09-12T09:51:57;94743.97;;;25.65;62.84
6030;BME280;3043;42.682;23.376;2022-09-12T09:54:58;94753.94;;;26.13;58.84
6030;BME280;3043;42.682;23.376;2022-09-12T09:57:44;94743.75;;;25.87;61.09
6030;BME280;3043;42.682;23.376;2022-09-12T10:00:34;94750.25;;;25.34;61.58
6030;BME280;3043;42.682;23.376;2022-09-12T10:05:30;94729.06;;;26.13;56.75
6030;BME280;3043;42.682;23.376;2022-09-12T10:07:57;94733.00;;;25.49;62.97
6030;BME280;3043;42.682;23.376;2022-09-12T10:10:23;94730.50;;;25.78;60.98
6030;BME280;3043;42.682;23.376;2022-09-12T10:12:50;94736.53;;;25.89;61.74
6030;BME280;3043;42.682;23.376;2022-09-12T10:15:22;94729.19;;;25.12;59.02
6030;BME280;3043;42.682;23.376;2022-09-12T10:17:49;94727.22;;;25.14;60.22
6030;BME280;3043;42.682;23.376;2022-09-12T10:20:37;94726.13;;;25.37;59.65
6030;BME280;3043;42.682;23.376;2022-09-12T10:23:29;94729.59;;;25.68;58.25
6030;BME280;3043;42.682;23.376;2022-09-12T10:25:59;94734.28;;;25.25;60.96
6030;BME280;3043;42.682;23.376;2022-09-12T10:28:35;94724.78;;;25.92;61.41
6030;BME280;3043;42.682;23.376;2022-09-12T10:31:02;94743.22;;;25.93;61.62
6030;BME280;3043;42.682;23.376;2022-09-12T10:33:28;94733.81;;;24.99;65.22
6030;BME280;3043;42.682;23.376;2022-09-12T10:35:54;94733.63;;;24.71;68.50
6030;BME280;3043;42.682;23.376;2022-09-12T10:38:24;94731.00;;;24.28;69.90
6030;BME280;3043;42.682;23.376;2022-09-12T10:41:02;94728.84;;;24.33;70.83
6030;BME280;3043;42.682;23.376;2022-09-12T10:43:36;94718.94;;;24.78;69.18
6030;BME280;3043;42.682;23.376;2022-09-12T10:48:43;94730.19;;;25.21;56.75
6030;BME280;3043;42.682;23.376;2022-09-12T10:51:27;94727.56;;;25.41;54.91
6030;BME280;3043;42.682;23.376;2022-09-12T10:54:01;94739.50;;;25.15;54.33
6030;BME280;3043;42.682;23.376;2022-09-12T10:56:33;94730.06;;;25.22;55.42
6030;BME280;3043;42.682;23.376;2022-09-12T10:59:21;94733.25;;;25.37;54.70
6030;BME280;3043;42.682;23.376;2022-09-12T11:07:46;94728.75;;;24.87;62.78
6030;BME280;3043;42.682;23.376;2022-09-12T11:14:01;94741.78;;;24.47;67.29
6030;BME280;3043;42.682;23.376;2022-09-12T11:22:17;94735.88;;;23.90;75.59
6030;BME280;3043;42.682;23.376;2022-09-12T11:30:15;94740.34;;;23.67;75.60
6030;BME280;3043;42.682;23.376;2022-09-12T11:35:46;94728.22;;;23.21;75.23
6030;BME280;3043;42.682;23.376;2022-09-12T11:40:55;94747.38;;;22.31;86.15
6030;BME280;3043;42.682;23.376;2022-09-12T11:46:28;94731.06;;;21.54;92.51
6030;BME280;3043;42.682;23.376;2022-09-12T11:57:22;94738.72;;;21.21;95.44
6030;BME280;3043;42.682;23.376;2022-09-12T12:02:54;94740.59;;;21.32;92.22
6030;BME280;3043;42.682;23.376;2022-09-12T12:05:28;94728.06;;;21.84;91.50
6030;BME280;3043;42.682;23.376;2022-09-12T12:08:01;94737.59;;;21.61;94.84
6030;BME280;3043;42.682;23.376;2022-09-12T12:10:38;94727.91;;;21.62;97.04
6030;BME280;3043;42.682;23.376;2022-09-12T12:13:16;94727.00;;;21.86;95.51
6030;BME280;3043;42.682;23.376;2022-09-12T12:15:46;94708.66;;;22.32;93.94
6030;BME280;3043;42.682;23.376;2022-09-12T12:18:18;94719.75;;;22.83;89.40
6030;BME280;3043;42.682;23.376;2022-09-12T12:20:46;94717.16;;;22.94;84.35
6030;BME280;3043;42.682;23.376;2022-09-12T12:23:30;94727.78;;;22.81;76.54
6030;BME280;3043;42.682;23.376;2022-09-12T12:26:00;94716.16;;;22.49;70.61
6030;BME280;3043;42.682;23.376;2022-09-12T12:31:09;94714.31;;;22.38;75.77
6030;BME280;3043;42.682;23.376;2022-09-12T12:36:08;94708.31;;;22.36;79.70
6030;BME280;3043;42.682;23.376;2022-09-12T12:38:35;94710.13;;;22.12;83.76
6030;BME280;3043;42.682;23.376;2022-09-12T12:43:49;94709.91;;;22.39;89.11
6030;BME280;3043;42.682;23.376;2022-09-12T12:46:16;94723.00;;;22.51;90.28
6030;BME280;3043;42.682;23.376;2022-09-12T12:49:00;94709.97;;;22.61;87.99
6030;BME280;3043;42.682;23.376;2022-09-12T12:51:36;94715.53;;;22.45;85.99
6030;BME280;3043;42.682;23.376;2022-09-12T12:54:25;94707.63;;;22.45;86.65
6030;BME280;3043;42.682;23.376;2022-09-12T12:57:03;94708.81;;;22.41;83.96
6030;BME280;3043;42.682;23.376;2022-09-12T12:59:29;94712.31;;;22.18;84.52
6030;BME280;3043;42.682;23.376;2022-09-12T13:01:56;94705.16;;;22.20;84.16
6030;BME280;3043;42.682;23.376;2022-09-12T13:04:27;94715.78;;;21.95;90.89
6030;BME280;3043;42.682;23.376;2022-09-12T13:07:20;94727.72;;;21.52;97.57
6030;BME280;3043;42.682;23.376;2022-09-12T13:09:50;94722.22;;;21.68;97.33
6030;BME280;3043;42.682;23.376;2022-09-12T13:12:22;94714.91;;;21.35;100.00
6030;BME280;3043;42.682;23.376;2022-09-12T13:14:52;94715.09;;;21.32;100.00
6030;BME280;3043;42.682;23.376;2022-09-12T13:17:37;94718.81;;;21.17;100.00
6030;BME280;3043;42.682;23.376;2022-09-12T13:22:47;94718.88;;;21.41;100.00
6030;BME280;3043;42.682;23.376;2022-09-12T13:25:34;94713.69;;;21.52;98.80
6030;BME280;3043;42.682;23.376;2022-09-12T13:28:03;94704.72;;;21.54;97.15
6030;BME280;3043;42.682;23.376;2022-09-12T13:30:31;94706.88;;;21.49;97.67
6030;BME280;3043;42.682;23.376;2022-09-12T13:33:08;94701.69;;;21.60;93.42
6030;BME280;3043;42.682;23.376;2022-09-12T13:44:23;94711.81;;;21.41;92.84
6030;BME280;3043;42.682;23.376;2022-09-12T13:46:51;94703.19;;;21.39;94.04
6030;BME280;3043;42.682;23.376;2022-09-12T13:49:46;94706.00;;;21.49;93.72
6030;BME280;3043;42.682;23.376;2022-09-12T13:52:21;94715.25;;;21.54;93.92
6030;BME280;3043;42.682;23.376;2022-09-12T13:54:52;94702.47;;;21.37;96.25
6030;BME280;3043;42.682;23.376;2022-09-12T13:59:58;94701.56;;;21.62;97.45
6030;BME280;3043;42.682;23.376;2022-09-12T14:02:26;94711.03;;;21.64;95.53
6030;BME280;3043;42.682;23.376;2022-09-12T14:04:54;94716.97;;;21.55;93.65
6030;BME280;3043;42.682;23.376;2022-09-12T14:07:37;94708.53;;;21.50;92.77
6030;BME280;3043;42.682;23.376;2022-09-12T14:10:04;94715.34;;;21.65;91.55
6030;BME280;3043;42.682;23.376;2022-09-12T14:12:34;94702.56;;;21.84;87.82
6030;BME280;3043;42.682;23.376;2022-09-12T14:15:00;94712.94;;;21.50;89.09
6030;BME280;3043;42.682;23.376;2022-09-12T14:20:07;94708.88;;;21.46;92.54
6030;BME280;3043;42.682;23.376;2022-09-12T14:22:34;94703.28;;;21.38;95.33
6030;BME280;3043;42.682;23.376;2022-09-12T14:25:00;94702.06;;;21.18;96.95
6030;BME280;3043;42.682;23.376;2022-09-12T14:27:30;94711.78;;;21.05;100.00
6030;BME280;3043;42.682;23.376;2022-09-12T14:30:13;94698.28;;;20.72;100.00
6030;BME280;3043;42.682;23.376;2022-09-12T14:33:01;94710.69;;;20.70;100.00
6030;BME280;3043;42.682;23.376;2022-09-12T14:35:27;94711.09;;;20.64;100.00
6030;BME280;3043;42.682;23.376;2022-09-12T14:37:53;94707.34;;;20.93;100.00
6030;BME280;3043;42.682;23.376;2022-09-12T14:40:21;94693.91;;;20.97;100.00
6030;BME280;3043;42.682;23.376;2022-09-12T14:42:48;94709.97;;;20.93;100.00
6030;BME280;3043;42.682;23.376;2022-09-12T14:45:29;94694.06;;;20.69;100.00
6030;BME280;3043;42.682;23.376;2022-09-12T14:47:57;94705.44;;;20.70;100.00
6030;BME280;3043;42.682;23.376;2022-09-12T14:50:28;94704.16;;;20.75;100.00
6030;BME280;3043;42.682;23.376;2022-09-12T14:55:30;94708.34;;;20.53;100.00
6030;BME280;3043;42.682;23.376;2022-09-12T14:58:26;94712.56;;;20.68;100.00
6030;BME280;3043;42.682;23.376;2022-09-12T15:01:01;94713.88;;;20.75;100.00
6030;BME280;3043;42.682;23.376;2022-09-12T15:05:56;94707.63;;;20.38;100.00
6030;BME280;3043;42.682;23.376;2022-09-12T15:08:23;94714.47;;;20.53;100.00
6030;BME280;3043;42.682;23.376;2022-09-12T15:10:49;94709.31;;;20.52;100.00
6030;BME280;3043;42.682;23.376;2022-09-12T15:13:20;94710.34;;;20.37;100.00
6030;BME280;3043;42.682;23.376;2022-09-12T15:15:57;94704.31;;;20.22;100.00
6030;BME280;3043;42.682;23.376;2022-09-12T15:18:25;94707.44;;;20.15;100.00
6030;BME280;3043;42.682;23.376;2022-09-12T15:20:54;94716.00;;;20.31;100.00
6030;BME280;3043;42.682;23.376;2022-09-12T15:23:30;94716.63;;;20.22;100.00
6030;BME280;3043;42.682;23.376;2022-09-12T15:25:57;94715.25;;;20.02;100.00
6030;BME280;3043;42.682;23.376;2022-09-12T15:28:23;94702.09;;;19.90;100.00
6030;BME280;3043;42.682;23.376;2022-09-12T15:30:51;94709.31;;;19.60;100.00
6030;BME280;3043;42.682;23.376;2022-09-12T15:33:18;94705.94;;;19.58;100.00
6030;BME280;3043;42.682;23.376;2022-09-12T15:35:45;94718.13;;;19.59;100.00
6030;BME280;3043;42.682;23.376;2022-09-12T15:38:10;94716.28;;;19.47;100.00
6030;BME280;3043;42.682;23.376;2022-09-12T15:40:37;94715.66;;;19.29;100.00